Time;durP1;ratioP1;P1;durP2;ratioP2;P2;SDS_P1;SDS_P2;PMS_P1;PMS_P2;Temp;Humidity;BMP_temperature;BMP_pressure;BME280_temperature;BME280_humidity;BME280_pressure;Samples;Min_cycle;Max_cycle;Signal;HPM_P1;HPM_P2
2023/01/23 00:00:56;;;;;;;35.20;23.55;;;;;;;0.12;100.00;103443.84;5036277;28;20033;-54
2023/01/23 00:03:22;;;;;;;34.50;22.33;;;;;;;0.13;100.00;103432.56;5036311;28;20116;-53
2023/01/23 00:06:02;;;;;;;30.00;21.38;;;;;;;0.14;100.00;103433.41;5038264;28;20108;-55
2023/01/23 00:08:28;;;;;;;35.72;23.58;;;;;;;0.13;100.00;103439.50;5036260;28;20029;-56
2023/01/23 00:10:53;;;;;;;38.15;23.08;;;;;;;0.11;100.00;103425.53;5037721;28;20029;-56
2023/01/23 00:13:19;;;;;;;31.35;22.75;;;;;;;0.12;100.00;103432.53;5038159;28;20037;-55
2023/01/23 00:15:45;;;;;;;33.53;22.40;;;;;;;0.11;100.00;103442.09;5038237;28;20033;-54
2023/01/23 00:18:10;;;;;;;34.20;23.33;;;;;;;0.12;100.00;103443.00;5027162;28;20120;-55
2023/01/23 00:20:36;;;;;;;32.28;22.60;;;;;;;0.13;100.00;103434.28;5038159;28;20549;-56
2023/01/23 00:23:02;;;;;;;32.13;22.17;;;;;;;0.13;100.00;103444.72;5031233;28;20049;-55
2023/01/23 00:25:27;;;;;;;34.00;22.63;;;;;;;0.12;100.00;103443.00;5037855;28;20072;-54
2023/01/23 00:27:52;;;;;;;34.67;23.30;;;;;;;0.13;100.00;103439.50;5037831;28;20104;-56
2023/01/23 00:30:18;;;;;;;36.78;24.17;;;;;;;0.12;100.00;103445.59;5038147;28;20025;-56
2023/01/23 00:32:43;;;;;;;35.03;23.20;;;;;;;0.12;100.00;103449.09;5027798;28;20518;-55
2023/01/23 00:35:08;;;;;;;35.72;23.33;;;;;;;0.13;100.00;103447.34;5038170;28;20051;-54
2023/01/23 00:37:34;;;;;;;38.88;23.27;;;;;;;0.14;100.00;103454.31;5037591;28;20022;-55
2023/01/23 00:39:59;;;;;;;37.90;23.98;;;;;;;0.14;100.00;103457.81;5037873;28;20037;-53
2023/01/23 00:42:24;;;;;;;37.17;22.35;;;;;;;0.15;100.00;103458.66;5025372;28;20072;-54
2023/01/23 00:44:50;;;;;;;37.08;24.30;;;;;;;0.15;100.00;103466.50;5038167;28;20434;-56
2023/01/23 00:47:15;;;;;;;33.50;23.65;;;;;;;0.15;100.00;103462.19;5034441;28;20539;-54
2023/01/23 00:49:40;;;;;;;34.53;23.67;;;;;;;0.14;100.00;103465.66;5031193;28;20026;-56
2023/01/23 00:52:05;;;;;;;35.55;22.48;;;;;;;0.15;100.00;103467.41;5034334;28;20021;-54
2023/01/23 00:54:31;;;;;;;35.88;23.15;;;;;;;0.16;100.00;103473.50;5034846;28;20025;-53
2023/01/23 00:56:56;;;;;;;32.95;23.27;;;;;;;0.16;100.00;103455.22;5032558;28;20025;-55
2023/01/23 00:59:22;;;;;;;33.03;22.77;;;;;;;0.15;100.00;103450.81;5034934;28;20033;-56
2023/01/23 01:01:48;;;;;;;33.67;22.73;;;;;;;0.15;100.00;103456.06;5033119;28;20399;-56
2023/01/23 01:04:13;;;;;;;33.20;22.23;;;;;;;0.15;100.00;103454.34;5008292;28;20068;-56
2023/01/23 01:06:38;;;;;;;32.42;22.67;;;;;;;0.15;100.00;103456.97;5034540;28;20013;-56
2023/01/23 01:09:04;;;;;;;34.83;23.15;;;;;;;0.15;100.00;103451.72;5026317;28;20033;-55
2023/01/23 01:11:29;;;;;;;32.17;22.02;;;;;;;0.17;100.00;103459.59;5032056;28;20032;-56
2023/01/23 01:13:56;;;;;;;36.10;22.27;;;;;;;0.15;100.00;103456.06;5026558;28;20025;-56
2023/01/23 01:16:23;;;;;;;30.60;22.02;;;;;;;0.15;100.00;103456.97;5034244;28;20471;-55
2023/01/23 01:18:49;;;;;;;33.47;21.55;;;;;;;0.16;100.00;103458.69;5034219;28;20503;-55
2023/01/23 01:21:16;;;;;;;32.08;21.45;;;;;;;0.17;100.00;103456.97;5025518;28;20032;-56
2023/01/23 01:23:41;;;;;;;34.85;22.67;;;;;;;0.17;100.00;103460.44;5034043;28;20076;-54
2023/01/23 01:26:07;;;;;;;30.58;21.70;;;;;;;0.18;100.00;103463.94;5034249;28;20029;-56
2023/01/23 01:28:35;;;;;;;31.00;21.27;;;;;;;0.17;100.00;103468.28;5026125;28;20062;-56
2023/01/23 01:31:18;;;;;;;29.23;22.15;;;;;;;0.21;100.00;103476.16;5033281;28;20025;-55
2023/01/23 01:33:44;;;;;;;30.52;20.80;;;;;;;0.17;100.00;103481.34;5028305;28;20395;-54
2023/01/23 01:36:11;;;;;;;35.10;22.95;;;;;;;0.18;100.00;103469.16;5029531;28;20087;-55
2023/01/23 01:38:36;;;;;;;30.88;21.85;;;;;;;0.20;100.00;103475.31;5033792;28;20041;-54
2023/01/23 01:41:03;;;;;;;34.75;22.23;;;;;;;0.20;100.00;103474.41;5029607;28;20025;-56
2023/01/23 01:43:28;;;;;;;33.08;21.77;;;;;;;0.19;100.00;103478.75;5033650;28;20046;-56
2023/01/23 01:46:21;;;;;;;31.98;21.48;;;;;;;0.22;100.00;103472.66;5033645;28;20021;-56
2023/01/23 01:48:49;;;;;;;33.03;21.77;;;;;;;0.20;100.00;103472.69;5013653;28;20550;-56
2023/01/23 01:51:29;;;;;;;32.87;21.30;;;;;;;0.21;100.00;103477.03;5033991;28;20033;-56
2023/01/23 01:54:05;;;;;;;29.45;21.05;;;;;;;0.20;100.00;103474.41;5033619;28;20091;-57
2023/01/23 01:56:37;;;;;;;30.33;20.85;;;;;;;0.20;100.00;103469.19;5032071;28;20029;-56
2023/01/23 01:59:03;;;;;;;30.65;21.98;;;;;;;0.19;100.00;103463.09;5033163;28;20033;-57
2023/01/23 02:01:28;;;;;;;31.80;21.55;;;;;;;0.18;100.00;103462.22;5032929;28;20395;-56
2023/01/23 02:03:54;;;;;;;31.33;22.08;;;;;;;0.17;100.00;103463.06;5029587;28;20084;-56
2023/01/23 02:06:19;;;;;;;32.67;21.85;;;;;;;0.17;100.00;103470.03;5035657;28;20033;-57
2023/01/23 02:09:00;;;;;;;31.15;21.33;;;;;;;0.18;100.00;103463.94;5033265;28;20391;-56
2023/01/23 02:11:25;;;;;;;32.13;21.13;;;;;;;0.17;100.00;103464.81;5026324;28;20487;-55
2023/01/23 02:13:54;;;;;;;36.50;24.13;;;;;;;0.18;100.00;103467.44;5033160;28;20032;-54
2023/01/23 02:16:21;;;;;;;34.97;22.48;;;;;;;0.18;100.00;103458.69;5033426;28;20037;-55
2023/01/23 02:18:50;;;;;;;34.75;22.40;;;;;;;0.17;100.00;103463.06;5025193;28;20396;-56
2023/01/23 02:21:19;;;;;;;36.63;22.58;;;;;;;0.18;100.00;103463.94;5031340;28;20144;-56
2023/01/23 02:24:15;;;;;;;34.72;21.63;;;;;;;0.20;100.00;103466.56;5032819;28;20061;-56
2023/01/23 02:26:42;;;;;;;35.45;21.85;;;;;;;0.20;100.00;103471.78;5023116;28;20120;-55
2023/01/23 02:29:08;;;;;;;32.97;22.45;;;;;;;0.20;100.00;103458.72;5032656;28;20375;-57
2023/01/23 02:31:34;;;;;;;33.17;22.17;;;;;;;0.17;100.00;103468.28;5028770;28;20040;-56
2023/01/23 02:33:59;;;;;;;34.95;22.27;;;;;;;0.17;100.00;103465.69;5026058;28;20034;-54
2023/01/23 02:36:28;;;;;;;33.47;23.02;;;;;;;0.17;100.00;103465.69;5036196;28;20022;-54
2023/01/23 02:39:08;;;;;;;34.00;22.42;;;;;;;0.20;100.00;103472.69;5032217;28;20171;-56
2023/01/23 02:41:37;;;;;;;32.85;21.70;;;;;;;0.21;100.00;103468.31;5027442;28;20128;-55
2023/01/23 02:44:32;;;;;;;32.00;21.65;;;;;;;0.21;100.00;103466.56;5032820;28;20395;-56
2023/01/23 02:47:06;;;;;;;34.28;22.02;;;;;;;0.20;100.00;103466.56;5030840;28;20388;-57
2023/01/23 02:49:32;;;;;;;34.85;22.20;;;;;;;0.18;100.00;103462.22;5031961;28;20124;-55
2023/01/23 02:51:58;;;;;;;39.55;22.77;;;;;;;0.19;100.00;103457.84;5032254;28;20025;-56
2023/01/23 02:54:24;;;;;;;33.78;21.48;;;;;;;0.19;100.00;103465.69;5032563;28;20036;-57
2023/01/23 02:56:50;;;;;;;37.72;23.05;;;;;;;0.20;100.00;103466.56;5019481;28;20029;-55
2023/01/23 03:01:59;;;;;;;34.38;23.40;;;;;;;0.21;100.00;103466.56;5021077;28;20071;-56
2023/01/23 03:04:25;;;;;;;35.67;23.55;;;;;;;0.20;100.00;103467.47;5042194;28;20056;-56
2023/01/23 03:06:50;;;;;;;35.08;21.98;;;;;;;0.21;100.00;103476.16;5032094;28;20468;-57
2023/01/23 03:09:16;;;;;;;32.10;22.98;;;;;;;0.22;100.00;103472.66;5020493;28;20033;-56
2023/01/23 03:11:43;;;;;;;34.50;22.02;;;;;;;0.21;100.00;103466.56;5034572;28;20082;-57
2023/01/23 03:14:16;;;;;;;34.17;22.98;;;;;;;0.20;100.00;103472.69;5032324;28;20041;-56
2023/01/23 03:16:43;;;;;;;37.42;23.48;;;;;;;0.22;100.00;103472.66;5025751;28;20029;-56
2023/01/23 03:19:09;;;;;;;34.28;23.13;;;;;;;0.23;100.00;103472.69;5026081;28;20030;-56
2023/01/23 03:21:39;;;;;;;35.10;23.38;;;;;;;0.22;100.00;103468.34;5030277;28;20078;-56
2023/01/23 03:24:06;;;;;;;32.67;22.00;;;;;;;0.22;100.00;103477.91;5032794;28;20130;-57
2023/01/23 03:26:31;;;;;;;32.58;22.27;;;;;;;0.22;100.00;103478.78;5028822;28;20037;-56
2023/01/23 03:31:41;;;;;;;36.58;22.90;;;;;;;0.22;100.00;103478.78;5031897;28;20119;-56
2023/01/23 03:34:06;;;;;;;37.45;24.30;;;;;;;0.22;100.00;103476.19;5027308;28;20072;-57
2023/01/23 03:36:36;;;;;;;36.53;22.63;;;;;;;0.23;100.00;103483.13;5034989;28;20514;-57
2023/01/23 03:41:47;;;;;;;33.75;21.42;;;;;;;0.25;100.00;103478.84;5031786;28;19928;-56
2023/01/23 03:44:12;;;;;;;34.15;22.08;;;;;;;0.24;100.00;103482.28;5031603;28;20037;-56
2023/01/23 03:46:37;;;;;;;34.08;22.92;;;;;;;0.24;100.00;103486.66;5023719;28;20120;-56
2023/01/23 03:49:03;;;;;;;32.67;22.85;;;;;;;0.24;100.00;103479.69;5031354;28;20160;-55
2023/01/23 03:51:28;;;;;;;32.55;22.27;;;;;;;0.25;100.00;103478.84;5032090;28;20077;-57
2023/01/23 03:53:53;;;;;;;38.58;23.73;;;;;;;0.25;100.00;103477.94;5019566;28;20037;-57
2023/01/23 03:56:19;;;;;;;36.33;22.75;;;;;;;0.26;100.00;103485.78;5030088;28;20099;-57
2023/01/23 03:58:44;;;;;;;36.63;22.73;;;;;;;0.25;100.00;103484.06;5029708;28;20495;-56
2023/01/23 04:01:09;;;;;;;35.50;23.23;;;;;;;0.27;100.00;103484.06;5030952;28;20025;-56
2023/01/23 04:03:35;;;;;;;36.75;23.15;;;;;;;0.27;100.00;103484.06;5026948;28;20032;-55
2023/01/23 04:06:00;;;;;;;37.90;23.85;;;;;;;0.27;100.00;103471.88;5030074;28;20036;-57
2023/01/23 04:08:27;;;;;;;36.90;23.42;;;;;;;0.28;100.00;103473.59;5031177;28;20018;-56
2023/01/23 04:11:08;;;;;;;35.08;23.48;;;;;;;0.29;100.00;103475.38;5040476;28;20029;-57
2023/01/23 04:13:35;;;;;;;37.53;23.08;;;;;;;0.29;100.00;103477.97;5022530;28;20538;-57
2023/01/23 04:16:01;;;;;;;35.55;23.88;;;;;;;0.29;100.00;103484.94;5031282;28;20044;-57
2023/01/23 04:18:26;;;;;;;35.45;23.85;;;;;;;0.29;100.00;103477.13;5027514;28;20067;-57
2023/01/23 04:20:52;;;;;;;37.15;23.48;;;;;;;0.28;100.00;103473.59;5031652;28;20060;-57
2023/01/23 04:23:17;;;;;;;36.83;24.27;;;;;;;0.29;100.00;103479.72;5022554;28;20030;-57
2023/01/23 04:25:43;;;;;;;37.63;24.05;;;;;;;0.29;100.00;103471.88;5035235;28;20021;-57
2023/01/23 04:28:08;;;;;;;40.33;23.30;;;;;;;0.29;100.00;103474.50;5039851;28;20055;-57
2023/01/23 04:30:33;;;;;;;40.33;25.60;;;;;;;0.29;100.00;103479.72;5034850;28;20200;-57
2023/01/23 04:32:58;;;;;;;36.78;23.70;;;;;;;0.30;100.00;103489.31;5035243;28;20028;-56
2023/01/23 04:35:24;;;;;;;38.38;24.08;;;;;;;0.28;100.00;103483.19;5030942;28;20044;-57
2023/01/23 04:37:49;;;;;;;39.03;24.23;;;;;;;0.28;100.00;103484.06;5035008;28;20490;-57
2023/01/23 04:40:14;;;;;;;37.92;24.75;;;;;;;0.30;100.00;103499.75;5030390;28;20096;-56
2023/01/23 04:42:40;;;;;;;36.00;23.38;;;;;;;0.29;100.00;103488.44;5034792;28;20075;-56
2023/01/23 04:45:06;;;;;;;36.85;23.38;;;;;;;0.30;100.00;103497.13;5029810;28;20041;-57
2023/01/23 04:47:32;;;;;;;40.67;24.15;;;;;;;0.29;100.00;103495.41;5034854;28;20463;-56
2023/01/23 04:49:57;;;;;;;41.90;24.38;;;;;;;0.31;100.00;103493.69;5034200;28;20076;-56
2023/01/23 04:52:23;;;;;;;35.78;23.95;;;;;;;0.31;100.00;103491.06;5035064;28;20095;-57
2023/01/23 04:54:48;;;;;;;36.63;22.30;;;;;;;0.31;100.00;103494.53;5034351;28;20092;-57
2023/01/23 04:57:13;;;;;;;38.58;23.30;;;;;;;0.32;100.00;103495.44;5037817;28;20051;-53
2023/01/23 04:59:38;;;;;;;39.38;23.70;;;;;;;0.32;100.00;103500.66;5034212;28;20021;-57
2023/01/23 05:02:04;;;;;;;38.97;23.25;;;;;;;0.32;100.00;103506.78;5034349;28;20388;-56
2023/01/23 05:04:29;;;;;;;36.03;23.45;;;;;;;0.34;100.00;103506.78;5030164;28;20112;-57
2023/01/23 05:06:54;;;;;;;37.55;23.65;;;;;;;0.33;100.00;103505.91;5034119;28;20546;-54
2023/01/23 05:09:20;;;;;;;40.47;24.20;;;;;;;0.33;100.00;103502.41;5029222;28;20485;-56
2023/01/23 05:11:45;;;;;;;35.17;23.73;;;;;;;0.32;100.00;103509.38;5033725;28;20021;-55
2023/01/23 05:14:11;;;;;;;41.15;25.20;;;;;;;0.33;100.00;103505.91;5039101;28;20021;-56
2023/01/23 05:16:36;;;;;;;36.63;23.38;;;;;;;0.32;100.00;103509.38;5030171;28;20463;-57
2023/01/23 05:19:01;;;;;;;35.90;23.35;;;;;;;0.34;100.00;103506.78;5027241;28;20056;-57
2023/01/23 05:21:27;;;;;;;39.67;22.98;;;;;;;0.33;100.00;103507.63;5033774;28;20519;-57
2023/01/23 05:23:52;;;;;;;37.60;25.27;;;;;;;0.34;100.00;103509.41;5034091;28;20021;-56
2023/01/23 05:26:17;;;;;;;37.47;24.42;;;;;;;0.36;100.00;103510.28;5032881;28;20059;-55
2023/01/23 05:28:42;;;;;;;35.75;24.08;;;;;;;0.36;100.00;103510.28;5033768;28;20475;-57
2023/01/23 05:31:08;;;;;;;34.75;23.15;;;;;;;0.36;100.00;103521.59;5033589;28;20044;-56
2023/01/23 05:33:33;;;;;;;36.88;24.38;;;;;;;0.36;100.00;103519.00;5029003;28;20107;-54
2023/01/23 05:35:59;;;;;;;35.45;23.80;;;;;;;0.36;100.00;103523.34;5032452;28;20493;-56
2023/01/23 05:38:25;;;;;;;36.75;23.25;;;;;;;0.37;100.00;103525.13;5025531;28;20149;-55
2023/01/23 05:40:50;;;;;;;34.03;22.77;;;;;;;0.38;100.00;103515.53;5032276;28;20104;-57
2023/01/23 05:43:16;;;;;;;41.15;24.05;;;;;;;0.37;100.00;103519.88;5033691;28;20491;-54
2023/01/23 05:45:41;;;;;;;38.28;23.05;;;;;;;0.38;100.00;103515.53;5033408;28;20105;-56
2023/01/23 05:48:06;;;;;;;38.13;23.48;;;;;;;0.37;100.00;103517.28;5024948;28;20034;-56
2023/01/23 05:50:31;;;;;;;41.47;23.98;;;;;;;0.39;100.00;103517.28;5031910;28;20021;-56
2023/01/23 05:52:57;;;;;;;39.00;24.58;;;;;;;0.38;100.00;103521.63;5026818;28;20055;-56
2023/01/23 05:55:22;;;;;;;39.70;24.08;;;;;;;0.38;100.00;103528.59;5033301;28;20101;-56
2023/01/23 05:57:48;;;;;;;42.90;25.27;;;;;;;0.38;100.00;103525.97;5032153;28;20487;-56
2023/01/23 06:00:14;;;;;;;38.28;24.52;;;;;;;0.39;100.00;103530.38;5033128;28;20549;-56
2023/01/23 06:02:39;;;;;;;37.85;24.67;;;;;;;0.38;100.00;103525.97;5033514;28;20038;-57
2023/01/23 06:05:05;;;;;;;39.00;24.70;;;;;;;0.38;100.00;103534.69;5031406;28;20032;-56
2023/01/23 06:07:31;;;;;;;36.47;24.65;;;;;;;0.39;100.00;103539.06;5033411;28;20108;-56
2023/01/23 06:09:56;;;;;;;38.25;24.88;;;;;;;0.38;100.00;103537.31;5033007;28;20025;-55
2023/01/23 06:12:22;;;;;;;40.75;25.65;;;;;;;0.39;100.00;103538.22;5028031;28;20536;-55
2023/01/23 06:14:47;;;;;;;38.05;24.67;;;;;;;0.39;100.00;103540.81;5033089;28;20017;-56
2023/01/23 06:17:13;;;;;;;37.97;24.98;;;;;;;0.38;100.00;103537.31;5033211;28;20400;-55
2023/01/23 06:19:38;;;;;;;40.42;25.98;;;;;;;0.39;100.00;103533.84;5030734;28;20014;-54
2023/01/23 06:22:03;;;;;;;39.25;26.00;;;;;;;0.40;100.00;103546.06;5033062;28;20064;-55
2023/01/23 06:24:29;;;;;;;36.92;24.90;;;;;;;0.40;100.00;103546.06;5026561;28;20063;-56
2023/01/23 06:26:54;;;;;;;38.40;25.83;;;;;;;0.41;100.00;103546.94;5032867;28;20033;-55
2023/01/23 06:29:20;;;;;;;39.15;25.35;;;;;;;0.41;100.00;103544.31;5032621;28;20028;-55
2023/01/23 06:31:46;;;;;;;37.00;24.65;;;;;;;0.41;100.00;103553.03;5032880;28;20031;-55
2023/01/23 06:34:12;;;;;;;43.08;26.02;;;;;;;0.41;100.00;103542.56;5025485;28;20033;-56
2023/01/23 06:36:39;;;;;;;45.55;25.98;;;;;;;0.43;100.00;103543.44;5032709;28;20037;-54
2023/01/23 06:39:04;;;;;;;37.15;24.60;;;;;;;0.44;100.00;103544.34;5032491;28;20053;-53
2023/01/23 06:41:30;;;;;;;39.70;25.17;;;;;;;0.44;100.00;103549.59;5032672;28;20094;-56
2023/01/23 06:43:55;;;;;;;40.90;25.25;;;;;;;0.44;100.00;103541.75;5020531;28;20049;-56
2023/01/23 06:46:20;;;;;;;36.83;25.02;;;;;;;0.43;100.00;103547.81;5031861;28;20025;-56
2023/01/23 06:48:45;;;;;;;35.78;24.65;;;;;;;0.44;100.00;103554.81;5032210;28;20026;-56
2023/01/23 06:51:11;;;;;;;40.25;25.70;;;;;;;0.43;100.00;103551.28;5031859;28;20025;-56
2023/01/23 06:53:36;;;;;;;38.47;24.45;;;;;;;0.43;100.00;103551.28;5029323;28;20132;-56
2023/01/23 06:56:05;;;;;;;40.72;25.50;;;;;;;0.42;100.00;103552.19;5032460;28;20027;-56
2023/01/23 06:58:31;;;;;;;42.97;25.73;;;;;;;0.42;100.00;103546.94;5016625;28;20526;-55
2023/01/23 07:00:57;;;;;;;43.63;26.33;;;;;;;0.45;100.00;103553.94;5023486;28;20032;-57
2023/01/23 07:03:22;;;;;;;39.85;26.92;;;;;;;0.47;100.00;103560.06;5031777;28;20108;-57
2023/01/23 07:05:47;;;;;;;40.13;26.00;;;;;;;0.48;100.00;103564.41;5020259;28;20044;-58
2023/01/23 07:08:13;;;;;;;41.40;26.60;;;;;;;0.49;100.00;103572.28;5037000;28;20112;-57
2023/01/23 07:10:38;;;;;;;40.22;24.88;;;;;;;0.49;100.00;103567.06;5022463;28;20472;-59
2023/01/23 07:13:10;;;;;;;42.40;26.08;;;;;;;0.50;100.00;103571.44;5011984;28;20037;-57
2023/01/23 07:15:35;;;;;;;37.63;25.02;;;;;;;0.51;100.00;103570.56;5023025;28;20057;-56
2023/01/23 07:18:01;;;;;;;39.55;25.35;;;;;;;0.50;100.00;103575.75;5024131;28;20060;-57
2023/01/23 07:20:27;;;;;;;38.42;25.38;;;;;;;0.51;100.00;103578.41;5031814;28;20515;-57
2023/01/23 07:22:53;;;;;;;39.85;25.77;;;;;;;0.53;100.00;103567.94;5038310;28;20052;-57
2023/01/23 07:25:20;;;;;;;44.85;26.40;;;;;;;0.53;100.00;103571.47;5026593;28;20040;-57
2023/01/23 07:27:45;;;;;;;37.72;26.73;;;;;;;0.53;100.00;103579.31;5031300;28;20033;-57
2023/01/23 07:30:10;;;;;;;34.40;23.85;;;;;;;0.52;100.00;103582.78;5029382;28;20040;-57
2023/01/23 07:32:36;;;;;;;38.40;25.17;;;;;;;0.53;100.00;103591.50;5015856;28;20065;-56
2023/01/23 07:35:01;;;;;;;36.38;24.65;;;;;;;0.52;100.00;103595.84;5016889;28;20470;-57
2023/01/23 07:37:26;;;;;;;39.50;26.55;;;;;;;0.53;100.00;103600.22;5025439;28;20046;-56
2023/01/23 07:39:52;;;;;;;39.97;25.33;;;;;;;0.54;100.00;103596.75;5032233;28;20429;-57
2023/01/23 07:42:17;;;;;;;45.90;25.67;;;;;;;0.53;100.00;103595.00;5016691;28;20053;-55
2023/01/23 07:44:42;;;;;;;39.47;24.98;;;;;;;0.54;100.00;103601.97;5002736;28;20026;-56
2023/01/23 07:47:08;;;;;;;38.75;25.85;;;;;;;0.55;100.00;103602.88;5021561;28;20405;-57
2023/01/23 07:49:33;;;;;;;37.35;24.08;;;;;;;0.55;100.00;103603.72;5021974;28;20029;-57
2023/01/23 07:51:59;;;;;;;36.38;23.90;;;;;;;0.55;100.00;103603.72;5018138;28;20066;-57
2023/01/23 07:54:24;;;;;;;37.72;24.27;;;;;;;0.55;100.00;103605.47;5018724;28;20499;-54
2023/01/23 07:56:50;;;;;;;34.55;23.92;;;;;;;0.56;100.00;103612.44;5019418;28;20038;-56
2023/01/23 07:59:15;;;;;;;36.15;23.98;;;;;;;0.55;100.00;103618.56;5025526;28;20418;-57
2023/01/23 08:01:40;;;;;;;37.88;24.65;;;;;;;0.55;100.00;103614.19;5022717;28;20046;-57
2023/01/23 08:04:06;;;;;;;34.88;24.40;;;;;;;0.56;100.00;103617.69;5022901;28;20160;-55
2023/01/23 08:06:32;;;;;;;37.17;23.77;;;;;;;0.57;100.00;103624.69;5018420;28;20099;-57
2023/01/23 08:08:58;;;;;;;35.67;23.33;;;;;;;0.55;100.00;103610.72;5016592;28;20031;-57
2023/01/23 08:11:25;;;;;;;36.38;23.15;;;;;;;0.56;100.00;103615.06;5025854;28;20054;-58
2023/01/23 08:13:50;;;;;;;35.03;23.75;;;;;;;0.57;100.00;103613.31;5033055;28;20053;-57
2023/01/23 08:16:16;;;;;;;33.70;23.45;;;;;;;0.59;100.00;103622.94;5031614;28;20065;-57
2023/01/23 08:18:41;;;;;;;40.08;25.02;;;;;;;0.59;100.00;103619.47;5027115;28;20080;-56
2023/01/23 08:21:06;;;;;;;35.72;24.25;;;;;;;0.60;100.00;103615.97;5031883;28;20045;-54
2023/01/23 08:23:33;;;;;;;37.85;24.90;;;;;;;0.62;100.00;103624.72;5033019;28;20123;-55
2023/01/23 08:26:01;;;;;;;37.05;24.63;;;;;;;0.64;100.00;103629.09;5026085;28;20962;-57
2023/01/23 08:28:27;;;;;;;38.87;26.30;;;;;;;0.66;100.00;103621.25;5033674;28;20049;-57
2023/01/23 08:30:53;;;;;;;36.83;24.95;;;;;;;0.67;100.00;103623.91;5031036;28;20045;-55
2023/01/23 08:33:20;;;;;;;39.20;25.10;;;;;;;0.68;100.00;103630.00;5033927;28;20037;-58
2023/01/23 08:35:50;;;;;;;33.75;24.33;;;;;;;0.69;100.00;103629.16;5016360;28;20302;-57
2023/01/23 08:38:17;;;;;;;36.97;24.35;;;;;;;0.69;100.00;103635.25;5030259;28;20463;-57
2023/01/23 08:40:42;;;;;;;33.53;23.08;;;;;;;0.71;100.00;103640.50;5032511;28;20025;-57
2023/01/23 08:43:09;;;;;;;31.02;23.00;;;;;;;0.70;100.00;103638.72;5026129;28;20407;-56
2023/01/23 08:45:35;;;;;;;37.40;24.88;;;;;;;0.70;100.00;103637.00;5010901;28;20489;-55
2023/01/23 08:48:01;;;;;;;35.03;24.85;;;;;;;0.72;100.00;103644.88;5019226;28;20077;-57
2023/01/23 08:50:27;;;;;;;35.80;24.75;;;;;;;0.74;100.00;103641.41;5023762;28;20144;-56
2023/01/23 08:52:54;;;;;;;35.25;25.13;;;;;;;0.73;100.00;103644.00;5018613;28;20045;-57
2023/01/23 08:55:19;;;;;;;36.03;23.70;;;;;;;0.73;100.00;103647.50;5027826;28;20484;-54
2023/01/23 08:57:44;;;;;;;35.83;23.42;;;;;;;0.75;100.00;103650.16;5012775;28;20037;-57
2023/01/23 09:00:10;;;;;;;40.97;24.85;;;;;;;0.77;100.00;103645.78;5022029;28;20025;-55
2023/01/23 09:02:35;;;;;;;34.58;23.60;;;;;;;0.80;100.00;103644.94;5031782;28;20379;-57
2023/01/23 09:05:01;;;;;;;34.75;24.85;;;;;;;0.81;100.00;103644.94;5032720;28;20030;-55
2023/01/23 09:07:26;;;;;;;34.70;23.60;;;;;;;0.83;100.00;103644.97;5032651;28;20109;-56
2023/01/23 09:09:53;;;;;;;32.97;24.05;;;;;;;0.84;100.00;103652.84;5030751;28;20025;-58
2023/01/23 09:12:19;;;;;;;34.05;23.77;;;;;;;0.85;100.00;103653.69;5033419;28;20120;-54
2023/01/23 09:14:44;;;;;;;34.42;24.70;;;;;;;0.87;100.00;103652.88;5029270;28;20474;-57
2023/01/23 09:17:10;;;;;;;38.63;24.60;;;;;;;0.88;100.00;103652.00;5023825;28;20038;-57
2023/01/23 09:19:35;;;;;;;32.78;23.65;;;;;;;0.89;100.00;103656.38;4994994;28;20343;-54
2023/01/23 09:22:01;;;;;;;36.85;23.77;;;;;;;0.92;100.00;103659.00;5028307;28;20395;-54
2023/01/23 09:24:27;;;;;;;38.47;25.45;;;;;;;0.92;100.00;103645.94;5030096;28;20123;-56
2023/01/23 09:26:52;;;;;;;37.40;24.67;;;;;;;0.96;100.00;103643.34;5031110;28;20057;-55
2023/01/23 09:29:17;;;;;;;36.90;24.33;;;;;;;0.97;100.00;103640.75;5033247;28;20390;-57
2023/01/23 09:31:43;;;;;;;35.13;24.60;;;;;;;0.99;100.00;103646.88;5022836;28;20033;-56
2023/01/23 09:34:08;;;;;;;35.67;24.20;;;;;;;1.02;100.00;103640.78;5022651;28;20064;-55
2023/01/23 09:36:34;;;;;;;34.35;24.30;;;;;;;1.03;100.00;103643.41;5029959;28;20044;-56
2023/01/23 09:38:59;;;;;;;35.70;24.20;;;;;;;1.07;100.00;103644.31;5026749;28;20108;-53
2023/01/23 09:41:27;;;;;;;34.50;23.27;;;;;;;1.08;100.00;103646.94;5025759;28;20379;-58
2023/01/23 09:44:11;;;;;;;37.95;24.92;;;;;;;1.11;100.00;103641.72;5020307;28;20480;-57
2023/01/23 09:46:43;;;;;;;39.38;25.15;;;;;;;1.14;100.00;103645.25;5026830;28;20112;-57
2023/01/23 09:49:29;;;;;;;35.38;24.52;;;;;;;1.17;100.00;103651.38;5028936;28;20034;-57
2023/01/23 09:52:10;;;;;;;35.25;24.27;;;;;;;1.16;100.00;103656.59;5029329;28;20037;-57
2023/01/23 09:54:43;;;;;;;34.15;24.08;;;;;;;1.19;100.00;103660.13;5031685;28;20124;-56
2023/01/23 09:57:38;;;;;;;36.42;25.08;;;;;;;1.21;100.00;103666.22;5030268;28;20051;-57
2023/01/23 10:00:12;;;;;;;34.33;24.45;;;;;;;1.22;100.00;103672.38;5021222;28;20095;-57
2023/01/23 10:02:41;;;;;;;31.05;23.40;;;;;;;1.23;100.00;103671.47;5030423;28;20038;-57
2023/01/23 10:05:13;;;;;;;36.38;23.42;;;;;;;1.26;100.00;103668.91;5028732;28;20033;-56
2023/01/23 10:08:09;;;;;;;35.42;23.48;;;;;;;1.28;100.00;103667.16;5028231;28;20046;-57
2023/01/23 10:10:46;;;;;;;35.15;23.98;;;;;;;1.31;100.00;103667.19;5027721;28;20482;-57
2023/01/23 10:13:36;;;;;;;35.10;23.92;;;;;;;1.31;100.00;103664.56;5026083;28;20053;-56
2023/01/23 10:16:36;;;;;;;32.50;21.77;;;;;;;1.31;100.00;103664.56;5027610;28;20483;-57
2023/01/23 10:19:25;;;;;;;31.38;22.15;;;;;;;1.34;100.00;103664.59;5025540;28;20057;-57
2023/01/23 10:21:54;;;;;;;;;;;;;;;1.40;100.00;103663.75;5014987;28;20060;-57
2023/01/23 10:24:31;;;;;;;31.57;22.50;;;;;;;1.36;100.00;103668.09;5026245;28;19916;-57
2023/01/23 10:27:02;;;;;;;34.20;22.85;;;;;;;1.38;100.00;103675.97;5020517;28;25197;-57
2023/01/23 10:29:40;;;;;;;34.55;22.90;;;;;;;1.39;100.00;103675.97;5031216;28;20126;-56
2023/01/23 10:32:20;;;;;;;32.45;23.23;;;;;;;1.42;100.00;103676.00;5029701;28;20073;-57
2023/01/23 10:34:56;;;;;;;28.77;21.00;;;;;;;1.42;100.00;103678.63;5024513;28;20467;-57
2023/01/23 10:37:40;;;;;;;31.20;22.92;;;;;;;1.44;100.00;103671.66;5023702;28;20541;-56
2023/01/23 10:40:11;;;;;;;30.17;21.77;;;;;;;1.45;100.00;103667.31;5024222;28;20041;-56
2023/01/23 10:42:36;;;;;;;29.48;22.13;;;;;;;1.46;100.00;103659.44;5028056;28;20045;-57
2023/01/23 10:45:02;;;;;;;29.50;22.05;;;;;;;1.47;100.00;103658.59;5021865;28;20029;-57
2023/01/23 10:47:35;;;;;;;29.42;21.08;;;;;;;1.47;100.00;103661.19;5025988;28;20104;-56
2023/01/23 10:50:01;;;;;;;32.88;22.38;;;;;;;1.51;100.00;103669.09;5029597;28;20468;-56
2023/01/23 10:52:36;;;;;;;30.67;22.83;;;;;;;1.50;100.00;103662.97;5028614;28;20079;-56
2023/01/23 10:55:05;;;;;;;30.92;22.52;;;;;;;1.50;100.00;103654.22;5018364;28;20079;-57
2023/01/23 10:57:43;;;;;;;28.63;21.75;;;;;;;1.54;100.00;103653.38;5026133;28;20033;-56
2023/01/23 11:00:19;;;;;;;29.38;21.42;;;;;;;1.55;100.00;103656.03;5026013;28;20029;-55
2023/01/23 11:02:45;;;;;;;32.95;22.25;;;;;;;1.56;100.00;103651.66;5027756;28;20129;-55
2023/01/23 11:05:34;;;;;;;31.80;22.80;;;;;;;1.61;100.00;103663.03;5029662;28;20474;-55
2023/01/23 11:07:59;;;;;;;29.17;21.48;;;;;;;1.59;100.00;103657.78;5025646;28;20029;-56
2023/01/23 11:10:25;;;;;;;30.30;22.02;;;;;;;1.60;100.00;103651.69;5030469;28;20026;-55
2023/01/23 11:12:53;;;;;;;34.28;22.73;;;;;;;1.61;100.00;103647.31;5019765;28;20498;-55
2023/01/23 11:15:28;;;;;;;31.08;22.45;;;;;;;1.63;100.00;103654.34;5001508;28;20222;-57
2023/01/23 11:17:56;;;;;;;31.17;22.67;;;;;;;1.64;100.00;103648.19;5030787;28;20083;-55
2023/01/23 11:20:27;;;;;;;29.45;21.52;;;;;;;1.66;100.00;103651.69;5028256;28;20112;-53